sensor_id;sensor_type;location;lat;lon;timestamp;temperature;humidity
354;DHT22;165;53.592;10.044;2023-03-14T14:32:40;7.90;99.90
354;DHT22;165;53.592;10.044;2023-03-14T14:35:08;8.00;99.90
354;DHT22;165;53.592;10.044;2023-03-14T14:37:41;8.20;99.90
354;DHT22;165;53.592;10.044;2023-03-14T14:40:21;8.10;99.90
354;DHT22;165;53.592;10.044;2023-03-14T14:42:48;8.10;99.90
354;DHT22;165;53.592;10.044;2023-03-14T14:45:17;7.90;99.90
354;DHT22;165;53.592;10.044;2023-03-14T14:47:52;7.90;99.90
354;DHT22;165;53.592;10.044;2023-03-14T14:50:34;7.70;99.90
354;DHT22;165;53.592;10.044;2023-03-14T14:53:19;7.60;99.90
354;DHT22;165;53.592;10.044;2023-03-14T14:55:50;7.50;99.90
354;DHT22;165;53.592;10.044;2023-03-14T14:58:29;7.30;99.90
354;DHT22;165;53.592;10.044;2023-03-14T15:03:28;7.40;99.90
354;DHT22;165;53.592;10.044;2023-03-14T15:05:54;7.30;99.90
354;DHT22;165;53.592;10.044;2023-03-14T15:08:20;7.60;99.90
354;DHT22;165;53.592;10.044;2023-03-14T15:10:46;7.60;99.90
354;DHT22;165;53.592;10.044;2023-03-14T15:13:11;7.50;99.90
354;DHT22;165;53.592;10.044;2023-03-14T15:15:37;7.60;99.90
354;DHT22;165;53.592;10.044;2023-03-14T15:18:07;7.70;99.90
354;DHT22;165;53.592;10.044;2023-03-14T15:20:35;7.60;99.90
354;DHT22;165;53.592;10.044;2023-03-14T15:23:01;7.50;99.90
354;DHT22;165;53.592;10.044;2023-03-14T15:25:26;7.60;99.90
354;DHT22;165;53.592;10.044;2023-03-14T15:27:52;7.50;99.90
354;DHT22;165;53.592;10.044;2023-03-14T15:30:18;7.60;99.90
354;DHT22;165;53.592;10.044;2023-03-14T15:32:43;7.60;99.90
354;DHT22;165;53.592;10.044;2023-03-14T15:35:09;7.60;99.90
354;DHT22;165;53.592;10.044;2023-03-14T15:37:35;7.50;99.90
354;DHT22;165;53.592;10.044;2023-03-14T15:40:00;7.50;99.90
354;DHT22;165;53.592;10.044;2023-03-14T15:42:26;7.30;99.90
354;DHT22;165;53.592;10.044;2023-03-14T15:44:51;7.20;99.90
354;DHT22;165;53.592;10.044;2023-03-14T15:47:17;7.10;99.90
354;DHT22;165;53.592;10.044;2023-03-14T15:49:42;7.10;99.90
354;DHT22;165;53.592;10.044;2023-03-14T15:52:08;6.90;99.90
354;DHT22;165;53.592;10.044;2023-03-14T15:54:34;6.90;99.90
354;DHT22;165;53.592;10.044;2023-03-14T15:57:00;7.00;99.90
354;DHT22;165;53.592;10.044;2023-03-14T15:59:26;6.80;99.90
354;DHT22;165;53.592;10.044;2023-03-14T16:01:51;6.90;99.90
354;DHT22;165;53.592;10.044;2023-03-14T16:04:17;6.80;99.90
354;DHT22;165;53.592;10.044;2023-03-14T16:06:43;6.70;99.90
354;DHT22;165;53.592;10.044;2023-03-14T16:09:09;6.80;99.90
354;DHT22;165;53.592;10.044;2023-03-14T16:11:34;6.80;99.90
354;DHT22;165;53.592;10.044;2023-03-14T16:14:00;6.90;99.90
354;DHT22;165;53.592;10.044;2023-03-14T16:16:25;7.00;99.90
354;DHT22;165;53.592;10.044;2023-03-14T16:18:51;7.00;99.90
354;DHT22;165;53.592;10.044;2023-03-14T16:21:18;7.10;99.90
354;DHT22;165;53.592;10.044;2023-03-14T16:23:44;6.80;99.90
354;DHT22;165;53.592;10.044;2023-03-14T16:26:13;6.70;99.90
354;DHT22;165;53.592;10.044;2023-03-14T16:28:39;6.60;99.90
354;DHT22;165;53.592;10.044;2023-03-14T16:31:07;6.50;99.90
354;DHT22;165;53.592;10.044;2023-03-14T16:33:34;6.60;99.90
354;DHT22;165;53.592;10.044;2023-03-14T16:36:01;6.50;99.90
354;DHT22;165;53.592;10.044;2023-03-14T16:38:27;6.30;99.90
354;DHT22;165;53.592;10.044;2023-03-14T16:41:00;6.20;99.90
354;DHT22;165;53.592;10.044;2023-03-14T16:43:27;6.10;99.90
354;DHT22;165;53.592;10.044;2023-03-14T16:45:52;6.00;99.90
354;DHT22;165;53.592;10.044;2023-03-14T16:48:18;5.90;99.90
354;DHT22;165;53.592;10.044;2023-03-14T16:50:44;5.90;99.90
354;DHT22;165;53.592;10.044;2023-03-14T16:53:09;5.80;99.90
354;DHT22;165;53.592;10.044;2023-03-14T16:55:40;5.70;99.90
354;DHT22;165;53.592;10.044;2023-03-14T16:58:05;5.70;99.90
354;DHT22;165;53.592;10.044;2023-03-14T17:00:31;5.60;99.90
354;DHT22;165;53.592;10.044;2023-03-14T17:02:56;5.60;99.90
354;DHT22;165;53.592;10.044;2023-03-14T17:05:22;5.40;99.90
354;DHT22;165;53.592;10.044;2023-03-14T17:07:47;5.40;99.90
354;DHT22;165;53.592;10.044;2023-03-14T17:10:13;5.40;99.90
354;DHT22;165;53.592;10.044;2023-03-14T17:12:38;5.30;99.90
354;DHT22;165;53.592;10.044;2023-03-14T17:15:04;5.30;99.90
354;DHT22;165;53.592;10.044;2023-03-14T17:17:30;5.20;99.90
354;DHT22;165;53.592;10.044;2023-03-14T17:19:55;5.10;99.90
354;DHT22;165;53.592;10.044;2023-03-14T17:22:21;5.10;99.90
354;DHT22;165;53.592;10.044;2023-03-14T17:24:46;5.10;99.90
354;DHT22;165;53.592;10.044;2023-03-14T17:27:12;5.10;99.90
354;DHT22;165;53.592;10.044;2023-03-14T17:29:39;5.00;99.90
354;DHT22;165;53.592;10.044;2023-03-14T17:32:05;4.80;99.90
354;DHT22;165;53.592;10.044;2023-03-14T17:34:30;4.90;99.90
354;DHT22;165;53.592;10.044;2023-03-14T17:36:56;4.90;99.90
354;DHT22;165;53.592;10.044;2023-03-14T17:39:21;4.90;99.90
354;DHT22;165;53.592;10.044;2023-03-14T17:41:47;4.90;99.90
354;DHT22;165;53.592;10.044;2023-03-14T17:44:12;4.80;99.90
354;DHT22;165;53.592;10.044;2023-03-14T17:46:38;4.80;99.90
354;DHT22;165;53.592;10.044;2023-03-14T17:49:03;4.70;99.90
354;DHT22;165;53.592;10.044;2023-03-14T17:51:29;4.80;99.90
354;DHT22;165;53.592;10.044;2023-03-14T17:53:54;4.70;99.90
354;DHT22;165;53.592;10.044;2023-03-14T17:56:20;4.70;99.90
354;DHT22;165;53.592;10.044;2023-03-14T17:58:45;4.70;99.90
354;DHT22;165;53.592;10.044;2023-03-14T18:01:16;4.60;99.90
354;DHT22;165;53.592;10.044;2023-03-14T18:03:42;4.60;99.90
354;DHT22;165;53.592;10.044;2023-03-14T18:06:12;4.60;99.90
354;DHT22;165;53.592;10.044;2023-03-14T18:08:39;4.50;99.90
354;DHT22;165;53.592;10.044;2023-03-14T18:11:04;4.50;99.90
354;DHT22;165;53.592;10.044;2023-03-14T18:13:30;4.50;99.90
354;DHT22;165;53.592;10.044;2023-03-14T18:15:55;4.50;99.90
354;DHT22;165;53.592;10.044;2023-03-14T18:18:21;4.50;99.90
354;DHT22;165;53.592;10.044;2023-03-14T18:20:53;4.60;99.90
354;DHT22;165;53.592;10.044;2023-03-14T18:23:19;4.70;99.90
354;DHT22;165;53.592;10.044;2023-03-14T18:25:45;4.70;99.90
354;DHT22;165;53.592;10.044;2023-03-14T18:28:11;4.60;99.90
354;DHT22;165;53.592;10.044;2023-03-14T18:30:36;4.60;99.90
354;DHT22;165;53.592;10.044;2023-03-14T18:33:02;4.70;99.90
354;DHT22;165;53.592;10.044;2023-03-14T18:35:28;4.90;99.90
354;DHT22;165;53.592;10.044;2023-03-14T18:37:53;4.90;99.90
354;DHT22;165;53.592;10.044;2023-03-14T18:40:22;4.90;99.90
354;DHT22;165;53.592;10.044;2023-03-14T18:42:47;4.70;99.90
354;DHT22;165;53.592;10.044;2023-03-14T18:45:13;4.20;99.90
354;DHT22;165;53.592;10.044;2023-03-14T18:47:38;4.10;99.90
354;DHT22;165;53.592;10.044;2023-03-14T18:50:06;4.10;99.90
354;DHT22;165;53.592;10.044;2023-03-14T18:52:32;4.00;99.90
354;DHT22;165;53.592;10.044;2023-03-14T18:54:57;3.70;99.90
354;DHT22;165;53.592;10.044;2023-03-14T18:57:23;3.60;99.90
354;DHT22;165;53.592;10.044;2023-03-14T18:59:48;3.40;99.90
354;DHT22;165;53.592;10.044;2023-03-14T19:02:14;3.30;99.90
354;DHT22;165;53.592;10.044;2023-03-14T19:04:39;3.30;99.90
354;DHT22;165;53.592;10.044;2023-03-14T19:07:04;3.30;99.90
354;DHT22;165;53.592;10.044;2023-03-14T19:09:30;3.30;99.90
354;DHT22;165;53.592;10.044;2023-03-14T19:11:57;3.40;99.90
354;DHT22;165;53.592;10.044;2023-03-14T19:14:22;3.30;99.90
354;DHT22;165;53.592;10.044;2023-03-14T19:16:48;3.30;99.90
354;DHT22;165;53.592;10.044;2023-03-14T19:19:13;3.30;99.90
354;DHT22;165;53.592;10.044;2023-03-14T19:21:39;3.20;99.90
354;DHT22;165;53.592;10.044;2023-03-14T19:24:05;3.30;99.90
354;DHT22;165;53.592;10.044;2023-03-14T19:26:31;3.30;99.90
354;DHT22;165;53.592;10.044;2023-03-14T19:28:59;3.30;99.90
354;DHT22;165;53.592;10.044;2023-03-14T19:31:25;3.30;99.90
354;DHT22;165;53.592;10.044;2023-03-14T19:33:51;3.30;99.90
354;DHT22;165;53.592;10.044;2023-03-14T19:36:24;3.30;99.90
354;DHT22;165;53.592;10.044;2023-03-14T19:38:50;3.30;99.90
354;DHT22;165;53.592;10.044;2023-03-14T19:41:16;3.40;99.90
354;DHT22;165;53.592;10.044;2023-03-14T19:43:41;3.40;99.90
354;DHT22;165;53.592;10.044;2023-03-14T19:46:07;3.50;99.90
354;DHT22;165;53.592;10.044;2023-03-14T19:48:32;3.40;99.90
354;DHT22;165;53.592;10.044;2023-03-14T19:51:01;3.40;99.90
354;DHT22;165;53.592;10.044;2023-03-14T19:53:27;3.60;99.90
354;DHT22;165;53.592;10.044;2023-03-14T19:55:54;3.60;99.90
354;DHT22;165;53.592;10.044;2023-03-14T19:58:20;3.70;99.90
354;DHT22;165;53.592;10.044;2023-03-14T20:00:45;3.80;99.90
354;DHT22;165;53.592;10.044;2023-03-14T20:03:12;3.90;99.90
354;DHT22;165;53.592;10.044;2023-03-14T20:05:38;3.80;99.90
354;DHT22;165;53.592;10.044;2023-03-14T20:08:07;3.80;99.90
354;DHT22;165;53.592;10.044;2023-03-14T20:10:35;3.80;99.90
354;DHT22;165;53.592;10.044;2023-03-14T20:13:01;3.90;99.90
354;DHT22;165;53.592;10.044;2023-03-14T20:15:27;3.90;99.90
354;DHT22;165;53.592;10.044;2023-03-14T20:17:54;3.90;99.90
354;DHT22;165;53.592;10.044;2023-03-14T20:20:20;3.90;99.90
354;DHT22;165;53.592;10.044;2023-03-14T22:30:37;2.80;99.90
354;DHT22;165;53.592;10.044;2023-03-14T22:33:02;2.80;99.90
354;DHT22;165;53.592;10.044;2023-03-14T22:35:28;2.70;99.90
354;DHT22;165;53.592;10.044;2023-03-14T22:37:53;2.60;99.90
354;DHT22;165;53.592;10.044;2023-03-14T22:40:19;2.40;99.90
354;DHT22;165;53.592;10.044;2023-03-14T22:42:44;2.30;99.90
354;DHT22;165;53.592;10.044;2023-03-14T22:45:10;2.30;99.90
354;DHT22;165;53.592;10.044;2023-03-14T22:47:35;2.20;99.90
354;DHT22;165;53.592;10.044;2023-03-14T22:50:01;2.20;99.90
354;DHT22;165;53.592;10.044;2023-03-14T22:52:29;2.10;99.90
354;DHT22;165;53.592;10.044;2023-03-14T22:54:54;2.10;99.90
354;DHT22;165;53.592;10.044;2023-03-14T22:57:20;2.10;99.90
354;DHT22;165;53.592;10.044;2023-03-14T22:59:45;2.10;99.90
354;DHT22;165;53.592;10.044;2023-03-14T23:02:11;2.20;99.90
354;DHT22;165;53.592;10.044;2023-03-14T23:04:36;2.20;99.90
354;DHT22;165;53.592;10.044;2023-03-14T23:07:02;2.20;99.90
354;DHT22;165;53.592;10.044;2023-03-14T23:09:27;2.20;99.90
354;DHT22;165;53.592;10.044;2023-03-14T23:11:53;2.20;99.90
354;DHT22;165;53.592;10.044;2023-03-14T23:14:18;2.20;99.90
354;DHT22;165;53.592;10.044;2023-03-14T23:16:44;2.20;99.90
354;DHT22;165;53.592;10.044;2023-03-14T23:19:09;2.20;99.90
354;DHT22;165;53.592;10.044;2023-03-14T23:21:35;2.30;99.90
354;DHT22;165;53.592;10.044;2023-03-14T23:24:00;2.30;99.90
354;DHT22;165;53.592;10.044;2023-03-14T23:26:26;2.40;99.90
354;DHT22;165;53.592;10.044;2023-03-14T23:28:52;2.40;99.90
354;DHT22;165;53.592;10.044;2023-03-14T23:31:18;2.40;99.90
354;DHT22;165;53.592;10.044;2023-03-14T23:33:44;2.60;99.90
354;DHT22;165;53.592;10.044;2023-03-14T23:36:12;2.70;99.90
354;DHT22;165;53.592;10.044;2023-03-14T23:38:40;2.80;99.90
354;DHT22;165;53.592;10.044;2023-03-14T23:41:06;2.80;99.90
354;DHT22;165;53.592;10.044;2023-03-14T23:43:32;2.80;99.90
354;DHT22;165;53.592;10.044;2023-03-14T23:45:58;2.80;99.90
354;DHT22;165;53.592;10.044;2023-03-14T23:48:26;2.70;99.90
354;DHT22;165;53.592;10.044;2023-03-14T23:50:56;2.60;99.90
354;DHT22;165;53.592;10.044;2023-03-14T23:53:23;2.60;99.90
354;DHT22;165;53.592;10.044;2023-03-14T23:55:50;2.50;99.90
354;DHT22;165;53.592;10.044;2023-03-14T23:58:15;2.50;99.90
